Ostby, North Dakota
Current Conditions -  °F | °C
As of 3:15 PM on Sunday 23 Nov 2014 (Local Time) from KRUG Reporting Station
Overcast Overcast  
Wind Chill: -3°   Ceiling: 2200
Heat Index: 16°   Visibility: 10mi
Dew Point:   Wind: 25mph
Humidity: 73%   Direction: 320°NW
Pressure: 29.57"   Gusts: 30mph
Location:  48.5496°N, 100.255°W
Report Text: KRUG 232115Z AUTO 32022G26KT 10SM FEW016 BKN022 OVC046 M09/M13 A2957 RMK AO2
Loading
Personal Weather Stations






























Interactive Weather Map New forecast layout! Learn more

10-Day Weather Forecast

Advertisements
Track Severe Weather on mobile